Bookmark and Share
Track history (hours):
 

Wilson Gdynia

Last reported at 2014-Apr-24 18:33 UTC. Time now 2014-Apr-24 19:36 UTC.
Position N 63°45' E 010°59'.

Length 88 m; draft 5.4 m.

Type: Cargo ship. MMSI: 314192000.

NotesDate/timePositionNaut miles runAvg speedWind from/ knotsBaromVisibWave heightAir tempDewpointWater temp
2014-Apr-24 18:33N 63°45' E 010°59'1010.2
2014-Apr-24 17:33N 63°39' E 010°42'1010.2
2014-Apr-24 16:34N 63°30' E 010°28'5 4.8
2014-Apr-24 15:31N 63°26' E 010°22'0 0.0
2014-Apr-24 14:31N 63°26' E 010°22'0 0.0
2014-Apr-24 13:31N 63°26' E 010°22'0 0.0
2014-Apr-24 12:31N 63°26' E 010°22'0 0.1
2014-Apr-24 11:31N 63°26' E 010°23'7 7.1
2014-Apr-24 10:33N 63°28' E 010°08'9 8.9
2014-Apr-24 09:31N 63°33' E 009°51'  
2014-Apr-21 11:30N 59°29' W 003°59'16 8.4
2014-Apr-21 09:33N 59°16' W 004°18'8 8.3
2014-Apr-21 08:33N 59°09' W 004°28'8 8.3
2014-Apr-21 07:33N 59°02' W 004°37'9 8.2
2014-Apr-21 06:29N 58°55' W 004°47'7 7.9
2014-Apr-21 05:34N 58°49' W 004°54'7 7.4
2014-Apr-21 04:33N 58°43' W 005°02'7 7.2
2014-Apr-21 03:33N 58°36' W 005°09'8 8.5
2014-Apr-21 02:33N 58°29' W 005°18'10 9.6
2014-Apr-21 01:33N 58°21' W 005°27'10 9.5
2014-Apr-21 00:32N 58°13' W 005°37'9 9.3
2014-Apr-20 23:33N 58°05' W 005°47'11 9.1
2014-Apr-20 22:18N 57°56' W 005°58'122 8.1
2014-Apr-20 07:17N 55°58' W 007°02'710.0
2014-Apr-20 06:33N 55°52' W 006°56'1111.1
2014-Apr-20 05:33N 55°42' W 006°48'1111.2
2014-Apr-20 04:33N 55°34' W 006°34'1111.2
2014-Apr-20 03:33N 55°28' W 006°17'10 9.7
2014-Apr-20 02:33N 55°24' W 006°02'9 8.6
2014-Apr-20 01:33N 55°16' W 005°54'7 7.4
2014-Apr-20 00:33N 55°10' W 005°47'7 7.2
2014-Apr-19 23:33N 55°04' W 005°41'7 7.2
2014-Apr-19 22:33N 54°58' W 005°35'7 7.3
2014-Apr-19 21:33N 54°51' W 005°31'8 8.1
2014-Apr-19 20:33N 54°44' W 005°39'8 8.2
2014-Apr-19 19:33N 54°39' W 005°51'3 0.9
2014-Apr-19 16:20N 54°37' W 005°54'0 0.0
2014-Apr-19 15:03N 54°37' W 005°54'0 0.0
2014-Apr-19 14:25N 54°37' W 005°54'0 0.0
2014-Apr-19 13:17N 54°37' W 005°54'0 0.0
2014-Apr-19 12:33N 54°37' W 005°54'0 0.0
2014-Apr-19 11:04N 54°37' W 005°54'0 0.0
2014-Apr-19 04:23N 54°37' W 005°54'0 0.0
2014-Apr-19 01:29N 54°37' W 005°54'0 0.0
2014-Apr-18 20:11N 54°37' W 005°54'0 0.0
2014-Apr-18 10:16N 54°37' W 005°54'0 0.0
2014-Apr-18 06:28N 54°37' W 005°54'0 0.0
2014-Apr-17 12:29N 54°37' W 005°54'0 0.0
2014-Apr-17 11:23N 54°37' W 005°54'0 0.0
2014-Apr-17 06:16N 54°37' W 005°54'0 0.0
2014-Apr-17 05:11N 54°37' W 005°54'0 0.0
2014-Apr-17 01:17N 54°37' W 005°54'0 0.0
2014-Apr-17 00:29N 54°37' W 005°54'0 0.0
2014-Apr-16 22:04N 54°37' W 005°54'0 0.0
2014-Apr-16 04:05N 54°37' W 005°54'0 0.0
2014-Apr-16 01:16N 54°37' W 005°54'0 0.0
2014-Apr-16 00:29N 54°37' W 005°54'0 0.0
2014-Apr-15 10:33N 54°38' W 005°53'4 3.6
2014-Apr-15 09:34N 54°40' W 005°50'4 4.1
2014-Apr-15 08:33N 54°42' W 005°44'3 2.8
2014-Apr-15 07:34N 54°43' W 005°39'3 2.7
2014-Apr-15 06:34N 54°45' W 005°36'3 2.4
2014-Apr-15 05:31N 54°47' W 005°34'9 4.3
2014-Apr-15 03:31N 54°56' W 005°35'6 6.3
2014-Apr-15 02:33N 55°01' W 005°41'6 6.2
2014-Apr-15 01:34N 55°06' W 005°48'6 5.6
2014-Apr-15 00:33N 55°10' W 005°53'4 4.5
2014-Apr-14 23:34N 55°14' W 005°58'5 5.0
2014-Apr-14 22:34N 55°18' W 006°04'6 5.7
2014-Apr-14 21:34N 55°21' W 006°11'6 6.1
2014-Apr-14 20:34N 55°24' W 006°21'7 7.2
2014-Apr-14 19:34N 55°26' W 006°33'6 6.4
2014-Apr-14 18:34N 55°30' W 006°42'  

Dump ship's entire track history

sailing weather and tide predictions

Wilson Gdynia — 8PSA — position and weather